createdAt,value
2024-03-05T00:02:40.375Z,1.90
2024-03-05T00:05:30.696Z,1.80
2024-03-05T00:08:20.094Z,1.90
2024-03-05T00:11:08.874Z,1.80
2024-03-05T00:13:57.162Z,1.80
2024-03-05T00:16:45.591Z,1.83
2024-03-05T00:19:34.357Z,1.90
2024-03-05T00:22:22.505Z,1.95
2024-03-05T00:25:12.534Z,1.70
2024-03-05T00:28:00.651Z,1.75
2024-03-05T00:30:48.747Z,1.90
2024-03-05T00:33:36.737Z,1.80
2024-03-05T00:36:26.293Z,1.85
2024-03-05T00:39:15.078Z,1.77
2024-03-05T00:42:04.876Z,1.67
2024-03-05T00:44:52.988Z,1.90
2024-03-05T00:47:41.186Z,1.83
2024-03-05T00:50:29.324Z,2.00
2024-03-05T00:53:17.339Z,2.00
2024-03-05T00:56:07.395Z,1.80
2024-03-05T00:58:57.316Z,1.97
2024-03-05T01:01:45.430Z,1.90
2024-03-05T01:04:33.775Z,1.90
2024-03-05T01:07:22.304Z,1.80
2024-03-05T01:10:10.917Z,1.88
2024-03-05T01:12:59.075Z,2.10
2024-03-05T01:15:48.734Z,1.80
2024-03-05T01:18:38.109Z,1.70
2024-03-05T01:21:26.267Z,1.80
2024-03-05T01:24:14.531Z,1.70
2024-03-05T01:27:02.696Z,1.60
2024-03-05T01:29:51.238Z,1.40
2024-03-05T01:32:40.966Z,1.50
2024-03-05T01:35:29.120Z,1.70
2024-03-05T01:38:17.265Z,1.80
2024-03-05T01:41:05.642Z,2.00
2024-03-05T01:43:53.925Z,1.88
2024-03-05T01:46:42.411Z,1.80
2024-03-05T01:49:32.433Z,1.75
2024-03-05T01:52:21.337Z,1.77
2024-03-05T01:55:14.181Z,1.80
2024-03-05T01:58:05.140Z,1.60
2024-03-05T02:00:53.357Z,1.55
2024-03-05T02:03:42.701Z,1.60
2024-03-05T02:06:34.818Z,1.60
2024-03-05T02:09:24.123Z,1.60
2024-03-05T02:12:12.205Z,1.85
2024-03-05T02:15:00.296Z,1.70
2024-03-05T02:17:48.908Z,1.77
2024-03-05T02:20:37.548Z,1.60
2024-03-05T02:23:26.984Z,2.00
2024-03-05T02:26:15.950Z,1.77
2024-03-05T02:29:04.345Z,1.70
2024-03-05T02:31:52.962Z,1.70
2024-03-05T02:34:41.241Z,1.60
2024-03-05T02:37:29.400Z,1.70
2024-03-05T02:40:19.241Z,1.65
2024-03-05T02:43:08.070Z,1.50
2024-03-05T02:45:56.223Z,1.85
2024-03-05T02:48:44.783Z,1.70
2024-03-05T02:51:32.877Z,1.70
2024-03-05T02:54:21.084Z,1.60
2024-03-05T02:57:10.446Z,1.85
2024-03-05T02:59:58.528Z,1.85
2024-03-05T03:02:48.029Z,1.80
2024-03-05T03:05:37.121Z,1.60
2024-03-05T03:08:25.193Z,1.90
2024-03-05T03:11:16.928Z,1.73
2024-03-05T03:14:08.711Z,1.88
2024-03-05T03:16:56.881Z,1.60
2024-03-05T03:19:45.343Z,1.73
2024-03-05T03:22:33.498Z,1.80
2024-03-05T03:25:22.132Z,1.80
2024-03-05T03:28:10.330Z,1.70
2024-03-05T03:30:59.877Z,2.05
2024-03-05T03:33:48.009Z,1.90
2024-03-05T03:36:36.140Z,1.63
2024-03-05T03:39:25.915Z,1.60
2024-03-05T03:42:14.365Z,1.63
2024-03-05T03:45:02.440Z,1.42
2024-03-05T03:47:52.189Z,1.70
2024-03-05T03:50:40.273Z,1.52
2024-03-05T03:53:28.360Z,1.60
2024-03-05T03:56:16.803Z,1.70
2024-03-05T03:59:04.943Z,1.80
2024-03-05T04:01:53.718Z,1.70
2024-03-05T04:04:43.728Z,1.40
2024-03-05T04:07:33.243Z,1.70
2024-03-05T04:10:21.721Z,1.60
2024-03-05T04:13:09.883Z,1.80
2024-03-05T04:15:58.720Z,1.37
2024-03-05T04:18:47.340Z,1.60
2024-03-05T04:21:42.074Z,1.73
2024-03-05T04:24:32.173Z,1.70
2024-03-05T04:27:21.774Z,1.50
2024-03-05T04:30:13.754Z,1.50
2024-03-05T04:33:05.350Z,1.50
2024-03-05T04:35:53.825Z,1.45
2024-03-05T04:38:44.800Z,1.58
2024-03-05T04:41:32.898Z,1.60
2024-03-05T04:44:21.042Z,1.57
2024-03-05T04:47:09.370Z,1.60
2024-03-05T04:49:58.864Z,1.50
2024-03-05T04:52:47.302Z,1.60
2024-03-05T04:55:37.244Z,1.50
2024-03-05T04:58:25.625Z,1.60
2024-03-05T05:01:13.732Z,1.75
2024-03-05T05:04:01.801Z,1.60
2024-03-05T05:06:49.920Z,1.80
2024-03-05T05:09:38.385Z,1.60
2024-03-05T05:12:27.871Z,1.70
2024-03-05T05:15:16.132Z,1.60
2024-03-05T05:18:05.932Z,1.70
2024-03-05T05:20:54.068Z,1.60
2024-03-05T05:23:42.158Z,1.40
2024-03-05T05:26:30.379Z,1.40
2024-03-05T05:29:27.373Z,1.60
2024-03-05T05:32:25.026Z,1.50
2024-03-05T05:35:13.175Z,1.48
2024-03-05T05:38:01.614Z,1.30
2024-03-05T05:40:50.787Z,1.30
2024-03-05T05:43:39.159Z,1.45
2024-03-05T05:46:29.307Z,1.40
2024-03-05T05:49:21.299Z,1.60
2024-03-05T05:52:10.105Z,1.45
2024-03-05T05:54:58.182Z,1.60
2024-03-05T05:57:47.456Z,1.70
2024-03-05T06:00:38.060Z,1.58
2024-03-05T06:03:27.776Z,1.55
2024-03-05T06:06:20.983Z,1.60
2024-03-05T06:09:10.543Z,1.50
2024-03-05T06:11:58.795Z,1.70
2024-03-05T06:14:46.876Z,1.30
2024-03-05T06:17:35.444Z,1.60
2024-03-05T06:20:24.880Z,1.42
2024-03-05T06:23:13.619Z,1.47
2024-03-05T06:26:02.373Z,1.55
2024-03-05T06:28:50.635Z,1.60
2024-03-05T06:31:38.737Z,1.52
2024-03-05T06:34:26.869Z,1.60
2024-03-05T06:37:16.610Z,1.60
2024-03-05T06:40:10.326Z,1.65
2024-03-05T06:43:06.842Z,1.40
2024-03-05T06:45:55.937Z,1.50
2024-03-05T06:48:48.816Z,1.48
2024-03-05T06:51:43.110Z,1.50
2024-03-05T06:54:52.959Z,1.67
2024-03-05T06:57:41.263Z,1.60
2024-03-05T07:00:30.802Z,1.55
2024-03-05T07:03:19.019Z,1.58
2024-03-05T07:06:09.148Z,1.40
2024-03-05T07:08:57.697Z,1.58
2024-03-05T07:11:48.629Z,1.60
2024-03-05T07:14:36.850Z,1.58
2024-03-05T07:17:24.891Z,1.50
2024-03-05T07:20:19.698Z,1.40
2024-03-05T07:23:08.005Z,1.60
2024-03-05T07:25:56.242Z,1.58
2024-03-05T07:28:46.291Z,1.50
2024-03-05T07:31:34.644Z,1.60
2024-03-05T07:34:22.870Z,1.50
2024-03-05T07:37:10.901Z,1.50
2024-03-05T07:39:58.906Z,1.60
2024-03-05T07:42:49.128Z,1.80
2024-03-05T07:45:38.574Z,1.50
2024-03-05T07:48:26.607Z,1.50
2024-03-05T07:51:21.461Z,1.58
2024-03-05T07:54:14.683Z,1.60
2024-03-05T07:57:03.299Z,1.50
2024-03-05T07:59:54.596Z,1.70
2024-03-05T08:02:46.129Z,1.70
2024-03-05T08:05:35.956Z,1.60
2024-03-05T08:08:26.577Z,1.70
2024-03-05T08:11:14.911Z,1.70
2024-03-05T08:14:05.038Z,1.60
2024-03-05T08:16:53.375Z,1.50
2024-03-05T08:19:43.073Z,1.63
2024-03-05T08:22:31.326Z,1.40
2024-03-05T08:25:20.723Z,1.60
2024-03-05T08:28:08.917Z,1.73
2024-03-05T08:30:57.189Z,1.60
2024-03-05T08:33:45.591Z,1.60
2024-03-05T08:36:38.069Z,1.60
2024-03-05T08:39:26.595Z,1.50
2024-03-05T08:42:15.061Z,1.60
2024-03-05T08:45:05.359Z,1.70
2024-03-05T08:47:55.008Z,1.60
2024-03-05T08:50:44.739Z,1.60
2024-03-05T08:53:34.195Z,1.70
2024-03-05T08:56:22.399Z,1.70
2024-03-05T08:59:10.490Z,1.60
2024-03-05T09:01:58.811Z,1.60
2024-03-05T09:04:47.148Z,1.60
2024-03-05T09:07:35.336Z,1.60
2024-03-05T09:10:24.968Z,1.40
2024-03-05T09:13:13.004Z,1.50
2024-03-05T09:16:01.089Z,1.50
2024-03-05T09:18:49.298Z,1.58
2024-03-05T09:21:37.606Z,1.70
2024-03-05T09:24:25.751Z,1.60
2024-03-05T09:27:15.182Z,1.60
2024-03-05T09:30:06.319Z,1.40
2024-03-05T09:32:54.429Z,1.50
2024-03-05T09:35:42.846Z,1.40
2024-03-05T09:38:32.472Z,1.60
2024-03-05T09:41:20.961Z,1.60
2024-03-05T09:44:10.911Z,1.70
2024-03-05T09:47:02.830Z,1.38
2024-03-05T09:49:52.879Z,1.58
2024-03-05T09:52:41.163Z,1.40
2024-03-05T09:55:29.446Z,1.37
2024-03-05T09:58:22.627Z,1.50
2024-03-05T10:01:12.081Z,1.50
2024-03-05T10:04:01.899Z,1.40
2024-03-05T10:06:51.521Z,1.40
2024-03-05T10:09:39.582Z,1.40
2024-03-05T10:12:28.704Z,1.27
2024-03-05T10:15:21.033Z,1.40
2024-03-05T10:18:11.069Z,1.27
2024-03-05T10:21:16.774Z,1.40
2024-03-05T10:24:06.728Z,1.50
2024-03-05T10:26:55.418Z,1.40
2024-03-05T10:29:43.717Z,1.40
2024-03-05T10:32:31.951Z,1.30
2024-03-05T10:35:21.405Z,1.50
2024-03-05T10:38:12.029Z,1.43
2024-03-05T10:41:01.256Z,1.40
2024-03-05T10:43:52.649Z,1.35
2024-03-05T10:46:41.986Z,1.20
2024-03-05T10:49:30.298Z,1.30
2024-03-05T10:52:26.021Z,1.37
2024-03-05T10:55:15.623Z,1.50
2024-03-05T10:58:38.014Z,1.30
2024-03-05T11:01:27.828Z,1.30
2024-03-05T11:04:19.686Z,1.30
2024-03-05T11:07:08.022Z,1.30
2024-03-05T11:09:59.265Z,1.30
2024-03-05T11:12:47.526Z,1.30
2024-03-05T11:15:36.898Z,1.30
2024-03-05T11:18:34.230Z,1.30
2024-03-05T11:21:24.535Z,1.40
2024-03-05T11:24:15.514Z,1.30
2024-03-05T11:27:12.906Z,1.38
2024-03-05T11:30:09.887Z,1.30
2024-03-05T11:32:58.394Z,1.40
2024-03-05T11:35:48.334Z,1.40
2024-03-05T11:38:56.918Z,1.30
2024-03-05T11:41:46.574Z,1.48
2024-03-05T11:44:56.404Z,1.30
2024-03-05T11:47:49.523Z,1.30
2024-03-05T11:50:39.505Z,1.33
2024-03-05T11:53:33.061Z,1.27
2024-03-05T11:56:21.179Z,1.20
2024-03-05T11:59:10.604Z,1.20
2024-03-05T12:02:00.623Z,1.20
2024-03-05T12:04:50.495Z,1.20
2024-03-05T12:07:39.400Z,1.10
2024-03-05T12:10:32.522Z,1.20
2024-03-05T12:13:21.056Z,1.17
2024-03-05T12:16:10.965Z,1.30
2024-03-05T12:19:02.160Z,1.30
2024-03-05T12:21:50.637Z,1.35
2024-03-05T12:24:39.201Z,1.30
2024-03-05T12:27:30.315Z,1.20
2024-03-05T12:30:20.796Z,1.30
2024-03-05T12:33:12.217Z,1.20
2024-03-05T12:36:02.118Z,1.30
2024-03-05T12:38:50.312Z,1.30
2024-03-05T12:41:40.705Z,1.25
2024-03-05T12:44:31.707Z,1.30
2024-03-05T12:47:20.996Z,1.40
2024-03-05T12:50:10.582Z,1.38
2024-03-05T12:53:04.250Z,1.35
2024-03-05T12:56:01.975Z,1.20
2024-03-05T12:58:50.135Z,1.20
2024-03-05T13:01:39.775Z,1.20
2024-03-05T13:04:28.427Z,1.30
2024-03-05T13:07:16.808Z,1.27
2024-03-05T13:10:11.749Z,1.20
2024-03-05T13:13:00.512Z,1.30
2024-03-05T13:15:48.782Z,1.30
2024-03-05T13:18:36.880Z,1.20
2024-03-05T13:21:24.876Z,1.30
2024-03-05T13:24:13.766Z,1.30
2024-03-05T13:27:04.210Z,1.23
2024-03-05T13:30:01.358Z,1.00
2024-03-05T13:33:02.482Z,1.10
2024-03-05T13:35:53.101Z,1.15
2024-03-05T13:38:41.232Z,1.10
2024-03-05T13:41:29.746Z,1.20
2024-03-05T13:44:21.396Z,1.30
2024-03-05T13:47:09.805Z,1.20
2024-03-05T13:49:58.226Z,1.30
2024-03-05T13:52:49.013Z,1.17
2024-03-05T13:55:37.330Z,1.20
2024-03-05T13:58:25.843Z,1.30
2024-03-05T14:01:15.416Z,1.15
2024-03-05T14:04:03.657Z,1.20
2024-03-05T14:06:51.877Z,1.27
2024-03-05T14:09:40.114Z,1.30
2024-03-05T14:12:30.399Z,1.40
2024-03-05T14:15:22.888Z,1.40
2024-03-05T14:18:13.050Z,1.40
2024-03-05T14:21:01.256Z,1.33
2024-03-05T14:23:49.612Z,1.35
2024-03-05T14:26:37.969Z,1.40
2024-03-05T14:29:26.292Z,1.33
2024-03-05T14:32:14.630Z,1.30
2024-03-05T14:35:09.907Z,1.17
2024-03-05T14:37:59.254Z,1.30
2024-03-05T14:40:47.463Z,1.30
2024-03-05T14:43:36.092Z,1.27
2024-03-05T14:46:26.059Z,1.30
2024-03-05T14:49:14.582Z,1.30
2024-03-05T14:52:05.502Z,1.50
2024-03-05T14:54:53.851Z,1.40
2024-03-05T14:57:42.754Z,1.40
2024-03-05T15:00:32.125Z,1.40
2024-03-05T15:03:21.479Z,1.38
2024-03-05T15:06:12.417Z,1.30
2024-03-05T15:09:02.008Z,1.27
2024-03-05T15:11:50.106Z,1.38
2024-03-05T15:14:43.144Z,1.30
2024-03-05T15:17:31.732Z,1.33
2024-03-05T15:20:23.028Z,1.30
2024-03-05T15:23:13.553Z,1.40
2024-03-05T15:26:06.400Z,1.30
2024-03-05T15:28:55.414Z,1.08
2024-03-05T15:31:45.831Z,1.20
2024-03-05T15:34:34.226Z,1.27
2024-03-05T15:37:23.335Z,1.13
2024-03-05T15:40:17.546Z,1.30
2024-03-05T15:43:08.679Z,1.30
2024-03-05T15:45:57.394Z,1.30
2024-03-05T15:48:45.585Z,1.40
2024-03-05T15:51:34.157Z,1.40
2024-03-05T15:54:22.567Z,1.35
2024-03-05T15:57:20.740Z,1.20
2024-03-05T16:00:15.384Z,1.30
2024-03-05T16:03:05.922Z,1.20
2024-03-05T16:06:00.804Z,1.40
2024-03-05T16:08:55.454Z,1.27
2024-03-05T16:11:43.714Z,1.20
2024-03-05T16:14:31.933Z,1.10
2024-03-05T16:17:24.444Z,1.30
2024-03-05T16:20:16.147Z,1.30
2024-03-05T16:23:05.023Z,1.27
2024-03-05T16:25:53.746Z,1.50
2024-03-05T16:28:42.014Z,1.40
2024-03-05T16:31:30.206Z,1.30
2024-03-05T16:34:20.442Z,1.20
2024-03-05T16:37:31.616Z,1.30
2024-03-05T16:40:22.059Z,1.20
2024-03-05T16:43:13.311Z,1.30
2024-03-05T16:46:01.512Z,1.40
2024-03-05T16:48:49.954Z,1.40
2024-03-05T16:51:41.124Z,1.40
2024-03-05T16:54:29.687Z,1.40
2024-03-05T16:57:17.857Z,1.40
2024-03-05T17:00:08.763Z,1.40
2024-03-05T17:02:58.037Z,1.50
2024-03-05T17:05:52.290Z,1.10
2024-03-05T17:08:44.036Z,1.30
2024-03-05T17:11:32.296Z,1.30
2024-03-05T17:14:21.248Z,1.40
2024-03-05T17:17:10.871Z,1.20
2024-03-05T17:20:03.431Z,1.25
2024-03-05T17:22:57.416Z,1.30
2024-03-05T17:25:47.431Z,1.20
2024-03-05T17:28:35.745Z,1.30
2024-03-05T17:31:28.305Z,1.30
2024-03-05T17:34:19.051Z,1.30
2024-03-05T17:37:07.184Z,1.30
2024-03-05T17:39:55.360Z,1.20
2024-03-05T17:42:46.141Z,1.20
2024-03-05T17:45:36.125Z,1.20
2024-03-05T17:48:24.576Z,1.23
2024-03-05T17:51:14.692Z,1.35
2024-03-05T17:54:03.017Z,1.30
2024-03-05T17:56:51.628Z,1.20
2024-03-05T17:59:41.296Z,1.20
2024-03-05T18:02:29.692Z,1.30
2024-03-05T18:05:21.126Z,1.30
2024-03-05T18:08:10.069Z,1.20
2024-03-05T18:10:58.417Z,1.30
2024-03-05T18:13:47.467Z,1.20
2024-03-05T18:16:38.750Z,1.30
2024-03-05T18:19:29.577Z,1.23
2024-03-05T18:22:19.878Z,1.40
2024-03-05T18:25:15.818Z,1.33
2024-03-05T18:28:05.276Z,1.40
2024-03-05T18:30:55.182Z,1.20
2024-03-05T18:33:47.053Z,1.30
2024-03-05T18:36:40.025Z,1.30
2024-03-05T18:39:28.194Z,1.40
2024-03-05T18:42:16.471Z,1.30
2024-03-05T18:45:06.615Z,1.40
2024-03-05T18:48:03.082Z,1.23
2024-03-05T18:50:59.164Z,1.30
2024-03-05T18:53:50.189Z,1.30
2024-03-05T18:56:39.784Z,1.40
2024-03-05T18:59:28.992Z,1.40
2024-03-05T19:02:17.600Z,1.58
2024-03-05T19:05:06.452Z,1.40
2024-03-05T19:07:56.022Z,1.58
2024-03-05T19:10:45.017Z,1.40
2024-03-05T19:13:33.395Z,1.30
2024-03-05T19:16:22.040Z,1.50
2024-03-05T19:19:12.208Z,1.60
2024-03-05T19:22:02.368Z,1.50
2024-03-05T19:24:55.052Z,1.63
2024-03-05T19:27:43.659Z,1.30
2024-03-05T19:30:32.806Z,1.60
2024-03-05T19:33:21.061Z,1.50
2024-03-05T19:36:10.832Z,1.40
2024-03-05T19:39:00.076Z,1.50
2024-03-05T19:41:49.812Z,1.50
2024-03-05T19:44:38.318Z,1.50
2024-03-05T19:47:27.041Z,1.40
2024-03-05T19:50:15.374Z,1.50
2024-03-05T19:53:03.651Z,1.40
2024-03-05T19:55:51.870Z,1.48
2024-03-05T19:58:41.770Z,1.50
2024-03-05T20:01:29.951Z,1.50
2024-03-05T20:04:18.873Z,1.38
2024-03-05T20:07:07.047Z,1.40
2024-03-05T20:09:55.284Z,1.48
2024-03-05T20:12:44.608Z,1.35
2024-03-05T20:15:34.058Z,1.13
2024-03-05T20:18:22.447Z,1.30
2024-03-05T20:21:10.532Z,1.33
2024-03-05T20:23:58.843Z,1.20
2024-03-05T20:26:47.055Z,1.30
2024-03-05T20:29:35.605Z,1.05
2024-03-05T20:32:30.299Z,1.20
2024-03-05T20:35:20.016Z,1.20
2024-03-05T20:38:09.110Z,1.23
2024-03-05T20:40:57.252Z,1.10
2024-03-05T20:43:47.001Z,1.40
2024-03-05T20:46:36.169Z,1.30
2024-03-05T20:49:25.640Z,1.20
2024-03-05T20:52:13.773Z,1.48
2024-03-05T20:55:02.094Z,1.20
2024-03-05T20:57:51.447Z,1.20
2024-03-05T21:00:39.506Z,1.40
2024-03-05T21:03:31.421Z,1.40
2024-03-05T21:06:22.540Z,1.40
2024-03-05T21:09:10.762Z,1.40
2024-03-05T21:11:58.966Z,1.45
2024-03-05T21:14:47.168Z,1.42
2024-03-05T21:17:35.710Z,1.43
2024-03-05T21:20:24.045Z,1.40
2024-03-05T21:23:16.807Z,1.50
2024-03-05T21:26:14.292Z,1.55
2024-03-05T21:29:15.176Z,1.40
2024-03-05T21:32:04.231Z,1.40
2024-03-05T21:34:52.611Z,1.30
2024-03-05T21:37:45.401Z,1.30
2024-03-05T21:40:35.097Z,1.30
2024-03-05T21:43:23.185Z,1.38
2024-03-05T21:46:11.283Z,1.30
2024-03-05T21:48:59.439Z,1.40
2024-03-05T21:51:47.574Z,1.50
2024-03-05T21:54:36.496Z,1.30
2024-03-05T21:57:25.955Z,1.40
2024-03-05T22:00:15.480Z,1.40
2024-03-05T22:03:05.113Z,1.10
2024-03-05T22:05:54.600Z,1.38
2024-03-05T22:08:42.933Z,1.38
2024-03-05T22:11:31.030Z,1.35
2024-03-05T22:14:20.461Z,1.40
2024-03-05T22:17:10.051Z,1.40
2024-03-05T22:19:58.246Z,1.40
2024-03-05T22:22:46.751Z,1.20
2024-03-05T22:25:35.061Z,1.30
2024-03-05T22:28:23.448Z,1.30
2024-03-05T22:31:12.872Z,1.40
2024-03-05T22:34:00.986Z,1.40
2024-03-05T22:36:49.027Z,1.60
2024-03-05T22:39:38.125Z,1.40
2024-03-05T22:42:26.241Z,1.40
2024-03-05T22:45:14.263Z,1.30
2024-03-05T22:48:03.645Z,1.20
2024-03-05T22:50:53.742Z,1.40
2024-03-05T22:53:42.275Z,1.30
2024-03-05T22:56:30.286Z,1.20
2024-03-05T22:59:20.132Z,1.40
2024-03-05T23:02:08.254Z,1.30
2024-03-05T23:04:57.733Z,1.35
2024-03-05T23:07:47.198Z,1.20
2024-03-05T23:10:35.441Z,1.30
2024-03-05T23:13:25.133Z,1.30
2024-03-05T23:16:13.307Z,1.45
2024-03-05T23:19:01.445Z,1.33
2024-03-05T23:21:50.807Z,1.60
2024-03-05T23:24:39.303Z,1.40
2024-03-05T23:27:27.515Z,1.30
2024-03-05T23:30:17.494Z,1.23
2024-03-05T23:33:06.333Z,1.30
2024-03-05T23:35:54.542Z,1.40
2024-03-05T23:38:44.514Z,1.30
2024-03-05T23:41:32.694Z,1.48
2024-03-05T23:44:24.019Z,1.30
2024-03-05T23:47:12.278Z,1.30
2024-03-05T23:50:00.511Z,1.40
2024-03-05T23:52:48.687Z,1.20
2024-03-05T23:55:38.218Z,1.40
2024-03-05T23:58:26.327Z,1.40
